Time;durP1;ratioP1;P1;durP2;ratioP2;P2;SDS_P1;SDS_P2;PMS_P1;PMS_P2;Temp;Humidity;BMP_temperature;BMP_pressure;BME280_temperature;BME280_humidity;BME280_pressure;Samples;Min_cycle;Max_cycle;Signal;HPM_P1;HPM_P2
2021/03/24 00:01:25;;;;;;;6.80;2.15;;;;;;;-1.92;68.09;99234.30;1781687;80;20991;-78
2021/03/24 00:03:54;;;;;;;5.92;2.10;;;;;;;-1.95;67.94;99239.63;1781662;80;21149;-74
2021/03/24 00:06:22;;;;;;;4.85;2.05;;;;;;;-2.01;67.88;99240.07;1781725;80;21185;-74
2021/03/24 00:08:50;;;;;;;2.65;1.67;;;;;;;-2.08;67.66;99247.47;1781877;80;21205;-73
2021/03/24 00:11:17;;;;;;;3.45;1.57;;;;;;;-2.18;67.58;99244.59;1782685;80;21225;-73
2021/03/24 00:13:46;;;;;;;4.28;1.55;;;;;;;-2.26;68.06;99253.03;1781808;80;21031;-73
2021/03/24 00:16:14;;;;;;;7.78;1.57;;;;;;;-2.34;68.11;99252.09;1781396;80;21141;-74
2021/03/24 00:18:42;;;;;;;4.45;1.62;;;;;;;-2.41;68.03;99254.92;1782762;80;21567;-74
2021/03/24 00:21:09;;;;;;;4.83;1.85;;;;;;;-2.47;68.21;99251.84;1783061;80;21805;-76
2021/03/24 00:23:36;;;;;;;3.65;1.45;;;;;;;-2.52;68.37;99258.45;1783034;80;21181;-74
2021/03/24 00:26:04;;;;;;;4.80;1.65;;;;;;;-2.56;68.72;99253.27;1783022;80;22168;-73
2021/03/24 00:28:31;;;;;;;3.98;1.62;;;;;;;-2.58;68.69;99268.81;1781372;80;21118;-73
2021/03/24 00:30:59;;;;;;;3.10;1.52;;;;;;;-2.63;68.59;99262.52;1781545;80;21676;-73
2021/03/24 00:33:26;;;;;;;2.85;1.50;;;;;;;-2.70;68.81;99265.33;1781442;80;21426;-73
2021/03/24 00:35:55;;;;;;;5.72;1.57;;;;;;;-2.77;69.16;99269.48;1781147;80;21063;-74
2021/03/24 00:38:24;;;;;;;3.70;1.45;;;;;;;-2.82;69.11;99266.69;1781544;80;20987;-74
2021/03/24 00:40:57;;;;;;;4.87;1.65;;;;;;;-2.86;69.49;99267.39;1781347;80;21609;-75
2021/03/24 00:43:26;;;;;;;5.08;1.45;;;;;;;-2.89;69.50;99271.39;1781411;80;20984;-75
2021/03/24 00:45:54;;;;;;;4.42;1.70;;;;;;;-2.91;69.78;99272.68;1781557;80;22134;-74
2021/03/24 00:48:28;;;;;;;8.50;2.10;;;;;;;-2.93;70.72;99267.55;1781657;79;21114;-74
2021/03/24 00:50:56;;;;;;;3.62;1.47;;;;;;;-2.95;69.94;99268.83;1781373;80;21051;-74
2021/03/24 00:53:24;;;;;;;3.95;1.50;;;;;;;-2.98;69.87;99262.06;1781856;80;21494;-74
2021/03/24 00:55:52;;;;;;;2.10;1.12;;;;;;;-3.01;70.42;99269.24;1781972;80;21542;-73
2021/03/24 00:58:20;;;;;;;5.40;1.80;;;;;;;-3.04;70.22;99265.68;1782020;80;21726;-74
2021/03/24 01:00:48;;;;;;;3.12;1.72;;;;;;;-3.09;70.09;99267.72;1781958;80;21020;-74
2021/03/24 01:03:15;;;;;;;7.42;1.67;;;;;;;-3.12;70.08;99274.09;1781984;80;21023;-73
2021/03/24 01:05:47;;;;;;;6.45;1.80;;;;;;;-3.16;70.30;99275.60;1781882;80;21173;-75
2021/03/24 01:08:25;;;;;;;3.05;1.45;;;;;;;-3.19;70.52;99276.89;1782275;80;21486;-74
2021/03/24 01:10:55;;;;;;;3.40;1.70;;;;;;;-3.21;70.52;99279.52;1782411;80;21670;-73
2021/03/24 01:13:24;;;;;;;3.40;1.65;;;;;;;-3.24;70.55;99283.48;1754772;80;21034;-73
2021/03/24 01:15:53;;;;;;;3.05;1.50;;;;;;;-3.27;70.88;99293.86;1751044;82;21494;-73
2021/03/24 01:18:22;;;;;;;3.77;1.45;;;;;;;-3.29;70.83;99288.72;1751128;82;21589;-72
2021/03/24 01:20:49;;;;;;;2.55;1.57;;;;;;;-3.29;70.81;99295.44;1751101;82;21157;-72
2021/03/24 01:23:17;;;;;;;6.42;2.00;;;;;;;-3.32;70.82;99295.38;1751084;82;21456;-73
2021/03/24 01:25:45;;;;;;;5.58;1.75;;;;;;;-3.35;71.02;99295.84;1760375;79;20951;-74
2021/03/24 01:28:20;;;;;;;2.42;1.35;;;;;;;-3.35;71.00;99299.05;1782806;80;21022;-74
2021/03/24 01:30:48;;;;;;;5.10;1.50;;;;;;;-3.39;71.11;99302.71;1783735;80;20920;-74
2021/03/24 01:33:17;;;;;;;8.03;2.25;;;;;;;-3.43;71.08;99303.41;1783600;80;21462;-73
2021/03/24 01:35:45;;;;;;;4.85;1.90;;;;;;;-3.46;71.24;99301.18;1782752;80;21361;-73
2021/03/24 01:38:13;;;;;;;4.12;1.90;;;;;;;-3.47;71.41;99303.08;1781918;80;21118;-72
2021/03/24 01:40:46;;;;;;;6.15;2.62;;;;;;;-3.45;71.45;99304.98;1781944;80;21134;-73
2021/03/24 01:43:28;;;;;;;6.72;1.67;;;;;;;-3.46;71.44;99307.37;1782037;80;21074;-74
2021/03/24 01:46:24;;;;;;;2.60;1.17;;;;;;;-3.47;71.72;99305.77;1774925;80;21170;-73
2021/03/24 01:49:21;;;;;;;3.17;1.47;;;;;;;-3.49;71.82;99315.09;1774699;80;22119;-72
2021/03/24 01:51:54;;;;;;;4.60;1.82;;;;;;;-3.52;71.70;99312.34;1730090;82;21471;-73
2021/03/24 01:54:32;;;;;;;4.67;2.00;;;;;;;-3.51;71.71;99318.53;1734834;82;21018;-73
2021/03/24 01:57:03;;;;;;;5.58;1.95;;;;;;;-3.50;72.19;99316.14;1722966;83;21195;-73
2021/03/24 01:59:31;;;;;;;3.72;1.60;;;;;;;-3.50;72.16;99322.84;1730493;83;21091;-72
2021/03/24 02:01:58;;;;;;;2.55;1.57;;;;;;;-3.50;72.01;99322.33;1730649;83;21265;-72
2021/03/24 02:04:25;;;;;;;9.73;2.00;;;;;;;-3.52;71.84;99320.92;1730696;83;21064;-72
2021/03/24 02:07:20;;;;;;;9.68;1.95;;;;;;;-3.54;71.88;99330.54;1730768;83;21143;-72
2021/03/24 02:10:14;;;;;;;2.85;1.52;;;;;;;-3.54;72.24;99323.83;1730639;83;21234;-72
2021/03/24 02:12:46;;;;;;;5.40;1.80;;;;;;;-3.53;72.14;99326.81;1730778;82;21148;-72
2021/03/24 02:15:25;;;;;;;3.83;1.70;;;;;;;-3.56;72.06;99319.73;1744180;82;21368;-72
2021/03/24 02:17:52;;;;;;;4.00;1.70;;;;;;;-3.57;72.39;99326.97;1743874;82;21000;-73
2021/03/24 02:20:46;;;;;;;3.42;1.70;;;;;;;-3.56;72.38;99330.47;1730764;83;21148;-72
2021/03/24 02:23:28;;;;;;;4.90;1.80;;;;;;;-3.56;72.39;99328.61;1705350;83;21116;-72
2021/03/24 02:26:04;;;;;;;3.60;1.65;;;;;;;-3.57;72.41;99326.97;1783582;80;21173;-72
2021/03/24 02:28:31;;;;;;;8.03;1.70;;;;;;;-3.54;72.62;99329.20;1771511;80;22246;-72
2021/03/24 02:30:59;;;;;;;4.00;1.67;;;;;;;-3.53;72.49;99330.83;1783633;80;21090;-72
2021/03/24 02:33:33;;;;;;;3.98;1.75;;;;;;;-3.53;72.36;99324.13;1783389;80;20924;-73
2021/03/24 02:36:05;;;;;;;3.12;1.42;;;;;;;-3.53;72.44;99332.70;1783534;80;21217;-73
2021/03/24 02:38:36;;;;;;;4.92;1.52;;;;;;;-3.54;72.66;99339.93;1783754;80;20928;-72
2021/03/24 02:41:04;;;;;;;6.15;1.92;;;;;;;-3.56;72.54;99335.31;1783426;80;21359;-73
2021/03/24 02:43:32;;;;;;;6.45;2.15;;;;;;;-3.55;72.51;99332.93;1783482;80;20956;-73
2021/03/24 02:46:03;;;;;;;3.98;2.10;;;;;;;-3.56;72.49;99333.97;1778862;80;21631;-73
2021/03/24 02:48:35;;;;;;;3.67;1.83;;;;;;;-3.56;72.70;99336.66;1774609;79;21146;-73
2021/03/24 02:51:06;;;;;;;4.87;1.90;;;;;;;-3.56;72.73;99338.00;1774622;80;21110;-73
2021/03/24 02:53:34;;;;;;;8.20;2.85;;;;;;;-3.57;72.71;99341.73;1777537;80;21446;-72
2021/03/24 02:56:04;;;;;;;3.70;1.70;;;;;;;-3.56;72.70;99342.02;1751316;80;21169;-72
2021/03/24 02:58:31;;;;;;;4.55;1.77;;;;;;;-3.56;73.00;99350.08;1777443;80;21114;-72
2021/03/24 03:00:59;;;;;;;5.20;1.95;;;;;;;-3.56;72.99;99341.20;1777369;80;21063;-72
2021/03/24 03:03:30;;;;;;;2.87;1.37;;;;;;;-3.57;72.86;99357.83;1777438;80;21071;-72
2021/03/24 03:05:59;;;;;;;4.50;2.13;;;;;;;-3.58;73.03;99352.17;1777788;80;22288;-72
2021/03/24 03:08:37;;;;;;;4.05;1.85;;;;;;;-3.58;73.14;99353.51;1751211;80;21515;-72
2021/03/24 03:11:22;;;;;;;8.08;2.15;;;;;;;-3.60;73.17;99350.23;1777509;80;21087;-72
2021/03/24 03:13:58;;;;;;;4.62;2.08;;;;;;;-3.60;73.15;99352.09;1777387;80;21574;-73
2021/03/24 03:16:53;;;;;;;3.75;2.00;;;;;;;-3.60;73.29;99354.26;1776894;80;20967;-73
2021/03/24 03:19:38;;;;;;;3.22;2.05;;;;;;;-3.62;73.48;99354.19;1777371;80;21415;-72
2021/03/24 03:22:16;;;;;;;7.37;2.70;;;;;;;-3.62;73.56;99358.22;1777319;80;20992;-72
2021/03/24 03:24:50;;;;;;;7.78;2.70;;;;;;;-3.61;73.56;99355.31;1777428;80;21015;-72
2021/03/24 03:27:18;;;;;;;3.62;2.35;;;;;;;-3.61;73.65;99359.86;1777539;80;20952;-71
2021/03/24 03:29:46;;;;;;;6.17;2.72;;;;;;;-3.59;73.93;99357.23;1750773;80;21567;-72
2021/03/24 03:32:17;;;;;;;7.22;3.45;;;;;;;-3.58;73.86;99359.40;1777534;80;21806;-71
2021/03/24 03:34:46;;;;;;;5.30;2.45;;;;;;;-3.56;73.92;99366.70;1777442;80;21087;-72
2021/03/24 03:37:14;;;;;;;4.87;2.40;;;;;;;-3.56;73.88;99370.72;1777289;80;21170;-72
2021/03/24 03:39:42;;;;;;;4.45;2.22;;;;;;;-3.54;74.11;99368.63;1777340;80;21114;-73
2021/03/24 03:42:10;;;;;;;6.85;3.10;;;;;;;-3.53;73.73;99367.58;1703612;80;21162;-72
2021/03/24 03:44:38;;;;;;;7.40;2.77;;;;;;;-3.53;73.69;99368.92;1777365;80;21193;-73
2021/03/24 03:47:09;;;;;;;6.37;2.42;;;;;;;-3.52;73.69;99373.25;1786065;79;21129;-71
2021/03/24 03:49:38;;;;;;;5.12;2.58;;;;;;;-3.53;73.82;99372.42;1760681;80;21490;-72
2021/03/24 03:52:20;;;;;;;6.92;3.02;;;;;;;-3.50;73.77;99371.97;1784604;80;21142;-72
2021/03/24 03:54:54;;;;;;;7.90;2.72;;;;;;;-3.50;73.59;99373.31;1780281;80;21066;-72
2021/03/24 03:57:36;;;;;;;7.97;2.70;;;;;;;-3.50;73.43;99373.84;1779862;80;21368;-72
2021/03/24 04:00:27;;;;;;;6.12;2.60;;;;;;;-3.50;73.60;99376.52;1779936;80;21066;-72
2021/03/24 04:03:15;;;;;;;5.22;2.80;;;;;;;-3.50;73.57;99381.36;1779953;80;21062;-71
2021/03/24 04:05:52;;;;;;;5.72;2.40;;;;;;;-3.50;73.87;99377.34;1780504;80;21054;-73
2021/03/24 04:08:26;;;;;;;4.12;1.95;;;;;;;-3.50;73.77;99380.02;1778209;80;21173;-72
2021/03/24 04:11:00;;;;;;;5.35;2.10;;;;;;;-3.49;73.81;99383.52;1776117;80;20995;-72
2021/03/24 04:13:30;;;;;;;5.65;2.50;;;;;;;-3.48;73.77;99388.66;1780263;80;20968;-72
2021/03/24 04:15:58;;;;;;;4.62;2.67;;;;;;;-3.47;73.69;99390.82;1781294;80;21626;-81
2021/03/24 04:18:38;;;;;;;5.55;2.40;;;;;;;-3.47;73.84;99390.82;1781481;80;21082;-71
2021/03/24 04:21:07;;;;;;;4.90;2.42;;;;;;;-3.45;73.92;99388.17;1757895;80;21117;-73
2021/03/24 04:23:39;;;;;;;6.92;2.80;;;;;;;-3.44;73.78;99381.76;1781632;80;21494;-72
2021/03/24 04:26:18;;;;;;;5.50;2.30;;;;;;;-3.41;74.35;99384.52;1781238;80;21007;-72
2021/03/24 04:28:57;;;;;;;6.78;2.58;;;;;;;-3.34;73.88;99389.26;1857281;76;27727;-72
2021/03/24 04:31:26;;;;;;;6.87;2.58;;;;;;;-3.36;73.45;99392.17;1811463;78;21567;-72
2021/03/24 04:33:54;;;;;;;6.25;2.50;;;;;;;-3.32;73.33;99393.88;1811240;78;22392;-72
2021/03/24 04:36:35;;;;;;;7.25;3.00;;;;;;;-3.33;73.36;99396.27;1841395;78;20943;-73
2021/03/24 04:39:11;;;;;;;4.10;2.22;;;;;;;-3.32;73.37;99399.24;1841089;77;21455;-76
2021/03/24 04:41:40;;;;;;;7.53;2.67;;;;;;;-3.33;73.26;99398.42;1791108;79;21185;-72
2021/03/24 04:44:19;;;;;;;5.45;2.72;;;;;;;-3.32;73.26;99404.09;1837923;78;21000;-72
2021/03/24 04:46:47;;;;;;;9.25;3.05;;;;;;;-3.29;73.27;99416.23;1836539;78;21378;-74
2021/03/24 04:49:20;;;;;;;5.83;2.70;;;;;;;-3.26;73.27;99414.96;1808147;79;21011;-72
2021/03/24 04:51:47;;;;;;;9.40;3.10;;;;;;;-3.21;73.13;99418.59;1808046;79;21562;-72
2021/03/24 04:54:31;;;;;;;5.83;2.52;;;;;;;-3.17;72.90;99419.78;1807964;79;21018;-73
2021/03/24 04:57:09;;;;;;;4.95;2.65;;;;;;;-3.15;73.09;99432.97;1808302;79;21024;-74
2021/03/24 04:59:40;;;;;;;7.20;2.47;;;;;;;-3.12;73.05;99434.67;1808137;79;21190;-75
2021/03/24 05:02:18;;;;;;;5.33;2.00;;;;;;;-3.08;72.77;99426.98;1808187;79;21158;-73
2021/03/24 05:04:54;;;;;;;7.22;2.75;;;;;;;-3.06;72.34;99428.91;1803188;79;21138;-72
2021/03/24 05:07:39;;;;;;;7.50;2.20;;;;;;;-3.06;72.62;99406.91;1781259;79;21067;-73
2021/03/24 05:10:11;;;;;;;5.53;2.62;;;;;;;-3.04;72.18;99437.03;1808379;79;21114;-73
2021/03/24 05:12:46;;;;;;;5.30;2.50;;;;;;;-3.02;72.40;99436.80;1808356;79;21184;-70
2021/03/24 05:15:28;;;;;;;4.90;2.25;;;;;;;-2.99;72.21;99443.06;1788095;79;21663;-72
2021/03/24 05:17:55;;;;;;;3.87;2.45;;;;;;;-2.97;72.53;99435.59;1808146;79;21051;-72
2021/03/24 05:20:31;;;;;;;6.55;2.40;;;;;;;-2.94;72.36;99441.84;1807317;78;21184;-73
2021/03/24 05:22:58;;;;;;;7.53;2.77;;;;;;;-2.92;72.00;99431.69;1807249;79;21201;-71
2021/03/24 05:25:42;;;;;;;5.85;2.75;;;;;;;-2.88;72.14;99432.83;1807474;79;21630;-72
2021/03/24 05:28:25;;;;;;;5.72;2.98;;;;;;;-2.83;72.20;99432.14;1807324;79;21196;-71
2021/03/24 05:31:19;;;;;;;5.80;2.55;;;;;;;-2.78;72.00;99433.09;1804562;79;21180;-73
2021/03/24 05:33:50;;;;;;;7.08;2.92;;;;;;;-2.70;71.83;99433.27;1774217;80;21555;-73
2021/03/24 05:36:30;;;;;;;5.65;2.70;;;;;;;-2.63;71.83;99433.16;1800710;78;20952;-72
2021/03/24 05:38:57;;;;;;;6.20;3.40;;;;;;;-2.55;71.82;99440.36;1808025;79;21564;-69
2021/03/24 05:41:59;;;;;;;6.80;2.72;;;;;;;-2.47;71.67;99435.16;1753154;79;21095;-71
2021/03/24 05:44:55;;;;;;;7.53;3.10;;;;;;;-2.37;71.16;99445.63;1746301;79;21197;-70
2021/03/24 05:48:21;;;;;;;6.87;3.02;;;;;;;-2.26;71.51;99449.86;1775579;80;21079;-74
2021/03/24 05:51:12;;;;;;;6.92;3.12;;;;;;;-2.10;71.23;99443.77;1786683;78;21633;-74
2021/03/24 05:54:12;;;;;;;11.68;3.40;;;;;;;-1.92;70.65;99449.00;1804908;79;21188;-73
2021/03/24 05:57:13;;;;;;;7.60;3.50;;;;;;;-1.78;70.09;99442.84;1807732;78;20937;-70
2021/03/24 05:59:55;;;;;;;10.25;3.27;;;;;;;-1.62;69.92;99438.02;1806834;78;21149;-73
2021/03/24 06:02:43;;;;;;;7.78;3.20;;;;;;;-1.47;69.21;99447.75;1807099;79;21055;-71
2021/03/24 06:05:22;;;;;;;7.50;3.10;;;;;;;-1.35;68.16;99448.53;1807233;79;21459;-71
2021/03/24 06:08:15;;;;;;;6.47;2.80;;;;;;;-1.27;68.38;99458.09;1807008;79;21363;-72
2021/03/24 06:10:57;;;;;;;6.90;3.33;;;;;;;-1.22;68.06;99464.92;1806945;79;21205;-72
2021/03/24 06:13:49;;;;;;;9.03;3.45;;;;;;;-1.13;67.97;99466.15;1806820;78;21218;-73
2021/03/24 06:16:30;;;;;;;20.05;6.70;;;;;;;-1.07;67.89;99466.53;1775119;80;21628;-72
2021/03/24 06:19:25;;;;;;;10.63;3.50;;;;;;;-0.98;67.26;99476.92;1785147;79;21118;-72
2021/03/24 06:22:01;;;;;;;15.95;3.90;;;;;;;-1.02;66.44;99481.44;1765567;79;21820;-73
2021/03/24 06:25:14;;;;;;;8.15;3.75;;;;;;;-1.04;66.86;99473.31;1801408;79;21572;-74
2021/03/24 06:27:59;;;;;;;9.43;3.87;;;;;;;-1.02;66.92;99484.14;1807208;79;21126;-71
2021/03/24 06:30:44;;;;;;;9.33;4.20;;;;;;;-0.95;67.03;99482.64;1804155;79;21157;-71
2021/03/24 06:33:23;;;;;;;7.42;3.65;;;;;;;-0.90;67.03;99487.30;1807345;79;21050;-71
2021/03/24 06:36:17;;;;;;;8.38;3.70;;;;;;;-0.80;67.37;99482.09;1807264;79;21359;-69
2021/03/24 06:39:19;;;;;;;10.08;4.42;;;;;;;-0.71;67.14;99487.38;1799129;79;21138;-72
2021/03/24 06:42:11;;;;;;;7.72;3.90;;;;;;;-0.67;66.33;99494.73;1807483;79;21134;-73
2021/03/24 06:45:19;;;;;;;7.28;3.75;;;;;;;-0.67;65.84;99498.78;1778266;79;21118;-74
2021/03/24 06:48:13;;;;;;;11.20;3.98;;;;;;;-0.64;66.20;99500.17;1807118;78;21166;-72
2021/03/24 06:51:11;;;;;;;16.15;4.97;;;;;;;-0.60;65.56;99509.41;1807373;79;21184;-71
2021/03/24 06:54:10;;;;;;;12.23;4.87;;;;;;;-0.57;65.32;99494.06;1693848;84;21197;-72
2021/03/24 06:57:02;;;;;;;15.70;3.75;;;;;;;-0.52;64.52;99499.54;1682551;85;21175;-70
2021/03/24 07:00:02;;;;;;;9.05;4.10;;;;;;;-0.48;65.25;99494.47;1704658;83;21187;-73
2021/03/24 07:03:08;;;;;;;9.40;4.33;;;;;;;-0.39;64.46;99511.89;1707281;82;21159;-73
2021/03/24 07:06:21;;;;;;;10.82;4.72;;;;;;;-0.32;63.75;99508.50;1707088;84;21849;-72
2021/03/24 07:09:22;;;;;;;11.40;4.60;;;;;;;-0.31;64.11;99506.08;1707137;84;21212;-70
2021/03/24 07:12:14;;;;;;;9.58;4.53;;;;;;;-0.17;63.40;99501.98;1668367;84;21197;-71
2021/03/24 07:15:22;;;;;;;14.95;4.75;;;;;;;-0.05;63.42;99510.81;1708288;83;21185;-69
2021/03/24 07:18:24;;;;;;;10.18;4.33;;;;;;;0.08;63.98;99507.45;1699292;84;21192;-70
2021/03/24 07:21:18;;;;;;;13.60;5.15;;;;;;;0.23;62.91;99517.12;1707680;84;22389;-69
2021/03/24 07:24:35;;;;;;;11.75;4.25;;;;;;;0.33;62.99;99503.76;1677733;85;21560;-69
2021/03/24 07:27:37;;;;;;;8.13;4.37;;;;;;;0.47;63.03;99511.78;1704499;84;20947;-70
2021/03/24 07:30:35;;;;;;;6.45;3.70;;;;;;;0.68;62.36;99514.17;1704464;84;21160;-71
2021/03/24 07:33:24;;;;;;;9.05;4.08;;;;;;;0.85;61.88;99510.05;1681891;84;21184;-71
2021/03/24 07:36:41;;;;;;;8.65;4.28;;;;;;;0.95;60.11;99510.17;1678772;84;22281;-71
2021/03/24 07:39:37;;;;;;;10.38;4.55;;;;;;;1.09;60.91;99518.70;1678258;85;21623;-71
2021/03/24 07:42:36;;;;;;;10.90;4.40;;;;;;;1.41;60.24;99523.59;1705492;83;21206;-73
2021/03/24 07:45:41;;;;;;;8.18;4.08;;;;;;;1.76;59.46;99529.83;1710470;83;21057;-73
2021/03/24 07:48:20;;;;;;;7.00;3.60;;;;;;;1.99;59.28;99516.47;1684409;85;21154;-71
2021/03/24 07:51:24;;;;;;;9.60;4.30;;;;;;;2.46;57.39;99515.11;1684267;85;21835;-71
2021/03/24 07:54:00;;;;;;;9.45;4.87;;;;;;;2.98;57.39;99515.58;1660103;85;21593;-73
2021/03/24 07:56:42;;;;;;;8.05;4.42;;;;;;;3.47;54.05;99521.36;1681894;85;21061;-70
2021/03/24 07:59:30;;;;;;;9.80;3.92;;;;;;;3.61;53.10;99518.93;1684102;84;21627;-73
2021/03/24 08:02:36;;;;;;;7.53;4.20;;;;;;;3.65;52.99;99527.63;1697363;84;21216;-70
2021/03/24 08:05:49;;;;;;;6.40;3.77;;;;;;;3.71;52.43;99528.44;1603602;88;21248;-69
2021/03/24 08:08:47;;;;;;;6.85;3.72;;;;;;;3.88;52.04;99528.17;1699374;84;21167;-70
2021/03/24 08:11:38;;;;;;;6.45;3.85;;;;;;;3.83;51.00;99523.55;1680469;84;21146;-71
2021/03/24 08:14:22;;;;;;;7.58;3.92;;;;;;;3.52;51.65;99530.05;1653255;86;21195;-72
2021/03/24 08:17:25;;;;;;;9.90;4.58;;;;;;;3.42;52.49;99530.88;1653508;86;21072;-70
2021/03/24 08:20:01;;;;;;;9.98;5.05;;;;;;;3.52;52.87;99530.05;1665163;85;22019;-70
2021/03/24 08:22:37;;;;;;;6.42;4.00;;;;;;;3.68;52.64;99540.38;1683422;85;21588;-68
2021/03/24 08:25:47;;;;;;;10.70;4.20;;;;;;;3.75;52.27;99532.24;1665791;83;21469;-69
2021/03/24 08:28:58;;;;;;;13.05;5.22;;;;;;;3.84;52.01;99529.26;1712504;83;21021;-69
2021/03/24 08:31:59;;;;;;;10.53;5.33;;;;;;;3.95;51.96;99532.78;1712857;83;21184;-70
2021/03/24 08:35:05;;;;;;;10.63;4.45;;;;;;;4.10;51.84;99531.93;1698994;83;21295;-68
2021/03/24 08:37:55;;;;;;;14.65;5.40;;;;;;;4.43;51.33;99534.05;1710567;83;21029;-69
2021/03/24 08:41:01;;;;;;;11.45;5.42;;;;;;;4.87;50.57;99527.91;1706232;83;21208;-70
2021/03/24 08:44:03;;;;;;;15.70;5.00;;;;;;;5.25;49.25;99523.61;1695000;83;21172;-70
2021/03/24 08:46:43;;;;;;;11.00;4.92;;;;;;;5.73;48.61;99524.66;1680768;85;21184;-70
2021/03/24 08:49:28;;;;;;;52.45;21.97;;;;;;;6.17;47.44;99529.19;1680424;85;21562;-70
2021/03/24 08:52:29;;;;;;;9.73;5.30;;;;;;;6.37;46.94;99523.52;1681758;83;22003;-70
2021/03/24 08:55:47;;;;;;;9.05;4.60;;;;;;;6.57;45.99;99530.12;1689088;83;21191;-69
2021/03/24 08:58:26;;;;;;;9.80;4.47;;;;;;;6.52;45.04;99530.72;1680911;85;21171;-68
2021/03/24 09:01:21;;;;;;;6.92;4.28;;;;;;;6.04;45.23;99528.49;1681114;85;21645;-68
2021/03/24 09:04:43;;;;;;;11.90;5.35;;;;;;;5.86;46.25;99525.34;1680592;85;21396;-69
2021/03/24 09:07:58;;;;;;;12.07;6.12;;;;;;;6.06;46.30;99538.56;1657582;85;21171;-71
2021/03/24 09:10:51;;;;;;;12.63;5.80;;;;;;;5.82;46.20;99539.27;1619733;88;21259;-69
2021/03/24 09:13:46;;;;;;;12.33;6.25;;;;;;;4.92;47.40;99545.02;1677415;85;21127;-70
2021/03/24 09:16:57;;;;;;;19.17;6.50;;;;;;;4.92;47.40;99545.02;1677739;85;21615;-71
2021/03/24 09:19:57;;;;;;;12.97;6.33;;;;;;;4.55;49.13;99546.80;1678041;85;21221;-70
2021/03/24 09:22:53;;;;;;;13.03;6.50;;;;;;;4.30;48.78;99557.72;1679575;84;21128;-70
2021/03/24 09:25:35;;;;;;;15.68;9.55;;;;;;;4.17;49.50;99567.79;1705395;83;21223;-69
2021/03/24 09:28:42;;;;;;;16.82;9.40;;;;;;;4.15;49.61;99567.25;1697994;84;21196;-73
2021/03/24 09:31:35;;;;;;;12.90;7.33;;;;;;;4.15;50.04;99546.87;1703070;83;21610;-68
2021/03/24 09:34:34;;;;;;;12.98;6.95;;;;;;;4.35;50.67;99549.56;1710870;83;21048;-70
2021/03/24 09:37:06;;;;;;;12.25;6.35;;;;;;;4.89;50.81;99545.58;1672838;83;21551;-69
2021/03/24 09:39:45;;;;;;;18.77;7.50;;;;;;;5.50;47.72;99553.41;1680235;85;20998;-70
2021/03/24 09:42:34;;;;;;;11.85;6.15;;;;;;;5.71;47.01;99545.09;1674001;85;22271;-71
2021/03/24 09:45:17;;;;;;;12.63;7.65;;;;;;;5.82;45.74;99560.24;1651972;86;21227;-69
2021/03/24 09:48:07;;;;;;;11.00;6.92;;;;;;;6.01;46.06;99553.04;1680139;84;22110;-70
2021/03/24 09:50:47;;;;;;;9.93;5.80;;;;;;;6.21;45.93;99551.50;1680270;85;21034;-71
2021/03/24 09:53:27;;;;;;;10.05;6.00;;;;;;;6.21;45.93;99551.50;1681452;85;21207;-71
2021/03/24 09:56:02;;;;;;;10.50;6.37;;;;;;;6.43;44.81;99545.54;1686913;84;21156;-71
2021/03/24 09:58:51;;;;;;;9.83;6.47;;;;;;;6.37;44.86;99541.23;1697083;84;21159;-71
2021/03/24 10:01:49;;;;;;;14.10;7.17;;;;;;;6.61;44.79;99541.27;1887470;76;22734;-70
2021/03/24 10:04:43;;;;;;;9.45;5.90;;;;;;;7.07;45.36;99545.60;1774709;80;21010;-69
2021/03/24 10:07:23;;;;;;;12.23;6.30;;;;;;;7.65;42.00;99539.86;1761881;81;21033;-71
2021/03/24 10:10:15;;;;;;;12.37;6.22;;;;;;;7.78;41.04;99545.95;1764458;80;21674;-71
2021/03/24 10:12:55;;;;;;;12.18;7.03;;;;;;;7.88;41.75;99558.64;1760329;81;21038;-72
2021/03/24 10:15:39;;;;;;;15.15;7.40;;;;;;;7.89;41.93;99551.51;1823039;77;20995;-77
2021/03/24 10:18:27;;;;;;;10.85;7.20;;;;;;;7.75;41.94;99542.44;1815004;79;21037;-74
2021/03/24 10:21:16;;;;;;;7.97;5.42;;;;;;;7.73;42.42;99540.55;1815497;79;22438;-70
2021/03/24 10:23:55;;;;;;;8.40;5.47;;;;;;;7.82;43.38;99545.61;1815812;79;21144;-75
2021/03/24 10:26:34;;;;;;;10.18;6.35;;;;;;;7.84;41.73;99547.48;1825108;76;21548;-72
2021/03/24 10:29:31;;;;;;;10.35;5.92;;;;;;;8.08;42.23;99535.08;1820613;77;21144;-71
2021/03/24 10:32:08;;;;;;;11.48;6.75;;;;;;;8.48;42.23;99539.02;1820543;77;21176;-74
2021/03/24 10:34:47;;;;;;;10.88;6.83;;;;;;;9.12;40.99;99533.63;1852599;76;21297;-71
2021/03/24 10:37:38;;;;;;;12.85;7.50;;;;;;;9.48;39.55;99533.64;1838093;76;21004;-73
2021/03/24 10:40:14;;;;;;;10.35;6.17;;;;;;;9.77;39.55;99535.43;1864798;76;21044;-71
2021/03/24 10:43:03;;;;;;;11.80;6.83;;;;;;;9.95;37.13;99536.34;1866065;76;21048;-73
2021/03/24 10:45:36;;;;;;;10.80;6.42;;;;;;;9.74;38.25;99544.27;1850664;76;21151;-77
2021/03/24 10:48:13;;;;;;;10.35;6.30;;;;;;;9.25;37.80;99539.06;1800970;78;21435;-72
2021/03/24 10:51:07;;;;;;;17.62;7.10;;;;;;;8.78;39.60;99545.00;1791171;80;21154;-73
2021/03/24 10:53:36;;;;;;;9.75;5.97;;;;;;;8.36;40.18;99552.37;1802462;78;21148;-78
2021/03/24 10:56:33;;;;;;;12.18;7.17;;;;;;;8.09;40.71;99553.63;1832158;77;21183;-75
2021/03/24 10:59:23;;;;;;;11.03;6.05;;;;;;;7.98;41.43;99551.64;1857980;77;21599;-72
2021/03/24 11:02:15;;;;;;;12.88;6.67;;;;;;;7.82;41.34;99553.80;1858109;77;21124;-72
2021/03/24 11:05:11;;;;;;;10.90;6.40;;;;;;;7.51;41.61;99545.84;1830428;78;22770;-74
2021/03/24 11:07:50;;;;;;;12.85;6.22;;;;;;;7.26;41.77;99545.63;1815494;79;21041;-83
2021/03/24 11:10:49;;;;;;;12.53;6.62;;;;;;;6.97;42.37;99545.73;1816574;79;20994;-71
2021/03/24 11:13:33;;;;;;;8.68;5.87;;;;;;;6.75;43.29;99550.38;1816549;79;21013;-74
2021/03/24 11:16:08;;;;;;;11.80;6.50;;;;;;;6.78;43.58;99551.72;1816668;79;20958;-73
2021/03/24 11:18:46;;;;;;;12.20;6.60;;;;;;;6.79;43.00;99543.80;1785239;79;20998;-71
2021/03/24 11:21:49;;;;;;;12.03;5.90;;;;;;;6.63;43.13;99549.41;1816783;78;20986;-70
2021/03/24 11:24:24;;;;;;;9.83;5.25;;;;;;;6.44;43.51;99549.08;1816741;79;21351;-70
2021/03/24 11:27:11;;;;;;;10.50;5.47;;;;;;;6.30;43.30;99548.97;1779379;79;21175;-71
2021/03/24 11:29:53;;;;;;;11.00;5.67;;;;;;;6.12;44.37;99542.86;1811573;79;21065;-72
2021/03/24 11:32:46;;;;;;;11.88;6.10;;;;;;;5.98;44.35;99551.44;1804746;78;20993;-72
2021/03/24 11:35:41;;;;;;;10.20;5.85;;;;;;;5.67;44.49;99542.13;1784347;80;21117;-72
2021/03/24 11:38:28;;;;;;;10.93;5.60;;;;;;;5.48;44.73;99548.78;1784466;80;21199;-71
2021/03/24 11:41:02;;;;;;;8.90;5.72;;;;;;;5.44;45.05;99540.92;1783625;80;21168;-71
2021/03/24 11:43:32;;;;;;;13.98;5.58;;;;;;;5.44;45.05;99540.92;1783616;80;21180;-72
2021/03/24 11:46:28;;;;;;;10.65;6.00;;;;;;;5.39;45.23;99543.67;1784317;79;21129;-72
2021/03/24 11:49:28;;;;;;;10.05;5.83;;;;;;;5.33;45.75;99543.98;1770887;79;21132;-72
2021/03/24 11:52:36;;;;;;;27.05;11.35;;;;;;;5.39;46.05;99544.22;1770995;79;21591;-73
2021/03/24 11:55:47;;;;;;;129.75;46.80;;;;;;;5.45;46.75;99545.27;1803183;79;21128;-72
2021/03/24 11:58:32;;;;;;;125.12;46.50;;;;;;;5.58;46.46;99542.46;1803316;79;21593;-72
2021/03/24 12:01:25;;;;;;;102.27;44.45;;;;;;;6.03;46.30;99536.41;1803211;79;21105;-74
2021/03/24 12:04:21;;;;;;;30.97;16.02;;;;;;;6.58;44.38;99535.02;1805964;79;21180;-71
2021/03/24 12:07:04;;;;;;;10.30;5.53;;;;;;;6.79;43.57;99532.88;1809034;79;21350;-73
2021/03/24 12:09:37;;;;;;;35.73;16.95;;;;;;;6.55;43.28;99531.51;1808862;78;21114;-72
2021/03/24 12:12:18;;;;;;;16.57;7.62;;;;;;;6.44;43.43;99529.44;1809163;79;21034;-72
2021/03/24 12:14:48;;;;;;;10.35;5.83;;;;;;;6.43;43.85;99531.09;1808885;79;21180;-72
2021/03/24 12:17:35;;;;;;;12.53;6.47;;;;;;;6.42;44.13;99536.28;1808606;78;21140;-73
2021/03/24 12:20:10;;;;;;;13.53;7.15;;;;;;;6.48;43.69;99530.48;1808553;78;21361;-73
2021/03/24 12:22:39;;;;;;;13.32;5.53;;;;;;;6.54;43.38;99527.97;1808412;79;21148;-73
2021/03/24 12:25:15;;;;;;;7.45;5.33;;;;;;;6.56;43.21;99535.86;1808666;79;21081;-74
2021/03/24 12:27:46;;;;;;;11.70;5.87;;;;;;;6.57;43.50;99528.75;1808563;78;21654;-75
2021/03/24 12:30:45;;;;;;;21.05;6.42;;;;;;;6.54;42.65;99528.52;1808587;78;21200;-75
2021/03/24 12:33:22;;;;;;;10.03;5.22;;;;;;;6.52;42.82;99535.63;1807086;79;21066;-73
2021/03/24 12:36:14;;;;;;;11.93;5.53;;;;;;;6.47;42.60;99536.23;1808083;79;21086;-74
2021/03/24 12:38:56;;;;;;;14.20;5.47;;;;;;;6.48;43.44;99535.13;1808066;79;21154;-73
2021/03/24 12:41:30;;;;;;;9.85;5.67;;;;;;;6.56;43.27;99527.67;1808250;79;21724;-74
2021/03/24 12:44:10;;;;;;;10.13;5.60;;;;;;;6.58;42.34;99520.83;1712906;82;21144;-74
2021/03/24 12:46:49;;;;;;;8.00;4.67;;;;;;;6.51;42.20;99538.09;1712011;83;22396;-73